createdAt,value
2022-07-30T00:03:42.649Z,20.00
2022-07-30T00:07:43.810Z,20.60
2022-07-30T00:11:45.025Z,20.30
2022-07-30T00:15:46.093Z,20.30
2022-07-30T00:19:47.230Z,20.20
2022-07-30T00:24:01.132Z,20.00
2022-07-30T00:27:51.249Z,20.20
2022-07-30T00:31:52.252Z,20.00
2022-07-30T00:35:53.461Z,20.20
2022-07-30T00:39:54.597Z,20.20
2022-07-30T00:43:55.898Z,19.90
2022-07-30T00:47:58.700Z,19.20
2022-07-30T00:51:59.712Z,19.40
2022-07-30T00:56:02.383Z,19.80
2022-07-30T01:00:06.929Z,19.80
2022-07-30T01:04:10.149Z,19.40
2022-07-30T01:08:11.581Z,19.80
2022-07-30T01:12:15.848Z,20.00
2022-07-30T01:16:17.026Z,20.30
2022-07-30T01:20:24.903Z,19.00
2022-07-30T01:24:32.611Z,19.20
2022-07-30T01:28:37.429Z,19.00
2022-07-30T01:32:41.250Z,18.40
2022-07-30T01:36:45.060Z,18.90
2022-07-30T01:40:46.456Z,19.00
2022-07-30T01:44:49.588Z,19.10
2022-07-30T01:48:51.391Z,19.40
2022-07-30T01:52:54.296Z,19.40
2022-07-30T01:56:57.594Z,19.50
2022-07-30T02:00:59.329Z,19.50
2022-07-30T02:05:00.596Z,19.50
2022-07-30T02:09:10.937Z,19.10
2022-07-30T02:13:10.227Z,18.30
2022-07-30T02:17:18.467Z,18.70
2022-07-30T02:21:20.190Z,18.70
2022-07-30T02:25:22.363Z,19.00
2022-07-30T02:29:24.087Z,19.20
2022-07-30T02:33:31.656Z,19.30
2022-07-30T02:37:42.853Z,18.90
2022-07-30T02:41:39.569Z,17.50
2022-07-30T02:45:41.723Z,17.20
2022-07-30T02:49:44.518Z,17.30
2022-07-30T02:53:47.821Z,18.60
2022-07-30T02:57:51.976Z,18.70
2022-07-30T03:01:54.333Z,18.80
2022-07-30T03:05:57.313Z,18.70
2022-07-30T03:10:00.039Z,18.60
2022-07-30T03:14:01.808Z,18.80
2022-07-30T03:18:04.738Z,19.00
2022-07-30T03:22:07.779Z,18.90
2022-07-30T03:26:12.391Z,18.40
2022-07-30T03:30:13.889Z,19.10
2022-07-30T03:34:16.988Z,19.50
2022-07-30T03:38:20.979Z,19.40
2022-07-30T03:42:22.380Z,19.30
2022-07-30T03:46:23.642Z,18.60
2022-07-30T03:50:24.774Z,18.90
2022-07-30T03:54:26.570Z,19.00
2022-07-30T03:58:27.968Z,19.00
2022-07-30T04:02:30.952Z,19.00
2022-07-30T04:06:32.736Z,19.00
2022-07-30T04:10:33.714Z,18.80
2022-07-30T04:14:40.270Z,18.60
2022-07-30T04:18:44.992Z,18.90
2022-07-30T04:22:47.431Z,18.90
2022-07-30T04:26:49.660Z,18.80
2022-07-30T04:30:51.117Z,19.10
2022-07-30T04:34:54.209Z,19.20
2022-07-30T04:38:55.929Z,18.80
2022-07-30T04:42:57.394Z,18.30
2022-07-30T04:46:58.651Z,18.50
2022-07-30T04:51:03.619Z,19.00
2022-07-30T04:55:07.348Z,19.20
2022-07-30T04:59:10.490Z,19.20
2022-07-30T05:03:13.930Z,19.20
2022-07-30T05:07:17.376Z,19.50
2022-07-30T05:11:20.300Z,19.50
2022-07-30T05:15:21.313Z,19.80
2022-07-30T05:19:23.005Z,19.20
2022-07-30T05:23:24.004Z,17.90
2022-07-30T05:27:25.031Z,18.50
2022-07-30T05:31:26.297Z,19.60
2022-07-30T05:35:29.220Z,20.40
2022-07-30T05:39:30.354Z,20.70
2022-07-30T05:43:31.664Z,20.80
2022-07-30T05:47:32.656Z,20.90
2022-07-30T05:51:33.815Z,19.90
2022-07-30T05:55:35.388Z,20.40
2022-07-30T05:59:40.528Z,20.40
2022-07-30T06:03:41.637Z,20.20
2022-07-30T06:07:42.719Z,20.80
2022-07-30T06:11:44.100Z,22.30
2022-07-30T06:15:45.268Z,23.80
2022-07-30T06:19:46.777Z,24.00
2022-07-30T06:23:47.936Z,23.50
2022-07-30T06:27:49.149Z,24.00
2022-07-30T06:31:50.450Z,23.10
2022-07-30T06:35:51.695Z,22.90
2022-07-30T06:39:56.973Z,23.70
2022-07-30T06:43:56.052Z,23.20
2022-07-30T06:47:58.248Z,22.80
2022-07-30T06:51:59.809Z,22.80
2022-07-30T06:56:01.166Z,22.00
2022-07-30T07:00:05.483Z,22.70
2022-07-30T07:04:07.125Z,22.90
2022-07-30T07:08:08.366Z,22.80
2022-07-30T07:12:09.631Z,22.40
2022-07-30T07:16:11.309Z,23.30
2022-07-30T07:20:12.852Z,23.90
2022-07-30T07:24:14.100Z,23.00
2022-07-30T07:28:15.371Z,23.50
2022-07-30T07:32:16.453Z,23.50
2022-07-30T07:36:17.471Z,23.00
2022-07-30T07:40:18.942Z,23.00
2022-07-30T07:44:20.127Z,24.60
2022-07-30T07:48:21.121Z,23.30
2022-07-30T07:52:22.288Z,24.60
2022-07-30T07:56:23.782Z,24.90
2022-07-30T08:00:25.025Z,24.20
2022-07-30T08:04:26.405Z,24.30
2022-07-30T08:08:27.686Z,25.60
2022-07-30T08:12:29.000Z,24.90
2022-07-30T08:16:30.139Z,25.10
2022-07-30T08:20:33.584Z,24.00
2022-07-30T08:24:34.933Z,23.70
2022-07-30T08:28:36.781Z,23.50
2022-07-30T08:32:38.320Z,24.50
2022-07-30T08:36:39.599Z,25.10
2022-07-30T08:40:41.246Z,24.80
2022-07-30T08:44:46.014Z,25.50
2022-07-30T08:48:47.555Z,24.20
2022-07-30T08:52:49.728Z,26.00
2022-07-30T08:56:51.053Z,27.40
2022-07-30T09:00:52.468Z,28.00
2022-07-30T09:04:54.006Z,27.60
2022-07-30T09:08:55.316Z,27.70
2022-07-30T09:12:56.417Z,27.50
2022-07-30T09:16:57.604Z,26.70
2022-07-30T09:21:17.576Z,27.70
2022-07-30T09:25:37.493Z,27.80
2022-07-30T09:29:38.806Z,27.10
2022-07-30T09:33:43.021Z,27.70
2022-07-30T09:37:45.786Z,25.30
2022-07-30T09:41:46.824Z,26.40
2022-07-30T09:45:57.983Z,25.70
2022-07-30T09:50:08.984Z,27.00
2022-07-30T09:54:10.616Z,27.10
2022-07-30T09:58:12.787Z,26.80
2022-07-30T10:02:15.196Z,26.40
2022-07-30T10:06:16.665Z,26.30
2022-07-30T10:10:25.514Z,28.10
2022-07-30T10:14:32.084Z,28.50
2022-07-30T10:18:32.037Z,28.20
2022-07-30T10:22:35.264Z,28.70
2022-07-30T10:26:36.760Z,29.70
2022-07-30T10:30:38.543Z,29.60
2022-07-30T10:34:43.078Z,28.40
2022-07-30T10:38:45.692Z,28.60
2022-07-30T10:43:16.096Z,29.00
2022-07-30T10:47:18.407Z,28.00
2022-07-30T10:51:34.489Z,28.50
2022-07-30T10:55:36.899Z,29.30
2022-07-30T10:59:51.025Z,30.20
2022-07-30T11:04:17.405Z,30.60
2022-07-30T11:08:36.759Z,30.90
2022-07-30T11:12:46.604Z,31.20
2022-07-30T11:16:53.329Z,28.40
2022-07-30T11:21:20.640Z,28.80
2022-07-30T11:25:49.983Z,30.00
2022-07-30T11:29:51.342Z,27.70
2022-07-30T11:33:43.178Z,29.40
2022-07-30T11:38:07.018Z,29.70
2022-07-30T11:42:33.970Z,30.60
2022-07-30T11:46:35.274Z,29.90
2022-07-30T11:50:38.304Z,31.00
2022-07-30T11:54:53.984Z,28.30
2022-07-30T11:59:07.931Z,28.90
2022-07-30T12:03:11.888Z,29.70
2022-07-30T12:07:12.999Z,28.40
2022-07-30T12:11:14.833Z,29.40
2022-07-30T12:15:31.471Z,30.80
2022-07-30T12:19:47.579Z,30.30
2022-07-30T12:23:41.240Z,31.60
2022-07-30T12:27:52.022Z,31.80
2022-07-30T12:31:52.084Z,33.40
2022-07-30T12:35:58.112Z,33.30
2022-07-30T12:40:15.209Z,33.90
2022-07-30T12:44:40.039Z,35.00
2022-07-30T12:49:21.297Z,35.00
2022-07-30T12:53:05.465Z,30.40
2022-07-30T12:57:07.060Z,30.90
2022-07-30T13:05:17.772Z,30.30
2022-07-30T13:09:19.977Z,29.20
2022-07-30T13:13:21.089Z,30.90
2022-07-30T13:17:22.341Z,32.20
2022-07-30T13:21:24.034Z,32.60
2022-07-30T13:25:25.267Z,33.80
2022-07-30T13:29:28.421Z,33.10
2022-07-30T13:33:29.630Z,32.00
2022-07-30T13:37:38.386Z,31.40
2022-07-30T13:41:35.313Z,30.60
2022-07-30T13:45:36.397Z,31.00
2022-07-30T13:49:39.352Z,31.00
2022-07-30T13:53:41.167Z,31.50
2022-07-30T13:57:42.218Z,31.20
2022-07-30T14:01:45.253Z,32.10
2022-07-30T14:05:46.351Z,31.80
2022-07-30T14:09:51.417Z,33.30
2022-07-30T14:13:50.336Z,31.60
2022-07-30T14:17:56.484Z,31.70
2022-07-30T14:21:54.473Z,31.40
2022-07-30T14:25:55.627Z,31.40
2022-07-30T14:29:56.798Z,31.40
2022-07-30T14:33:57.786Z,32.20
2022-07-30T14:38:02.088Z,32.20
2022-07-30T14:42:04.431Z,32.70
2022-07-30T14:46:05.345Z,30.90
2022-07-30T14:50:08.974Z,31.70
2022-07-30T14:54:12.997Z,31.60
2022-07-30T14:58:13.890Z,32.60
2022-07-30T15:02:15.112Z,31.40
2022-07-30T15:06:16.622Z,32.20
2022-07-30T15:10:18.521Z,31.50
2022-07-30T15:14:20.534Z,31.20
2022-07-30T15:18:21.978Z,31.00
2022-07-30T15:22:23.163Z,30.50
2022-07-30T15:26:24.631Z,30.60
2022-07-30T15:30:25.659Z,30.30
2022-07-30T15:34:27.694Z,29.30
2022-07-30T15:38:28.733Z,30.00
2022-07-30T15:42:30.716Z,28.80
2022-07-30T15:46:31.916Z,29.10
2022-07-30T15:50:32.983Z,29.50
2022-07-30T15:54:34.295Z,28.90
2022-07-30T15:58:36.725Z,28.90
2022-07-30T16:02:38.869Z,28.70
2022-07-30T16:06:41.115Z,29.60
2022-07-30T16:10:42.337Z,28.50
2022-07-30T16:14:43.366Z,29.70
2022-07-30T16:18:44.485Z,29.60
2022-07-30T16:22:45.628Z,29.10
2022-07-30T16:26:46.702Z,29.20
2022-07-30T16:30:50.533Z,29.30
2022-07-30T16:34:50.964Z,28.40
2022-07-30T16:38:52.240Z,29.10
2022-07-30T16:42:53.463Z,28.10
2022-07-30T16:46:54.618Z,28.10
2022-07-30T16:50:55.736Z,29.00
2022-07-30T16:54:56.780Z,27.40
2022-07-30T16:58:57.826Z,27.50
2022-07-30T17:02:58.955Z,27.70
2022-07-30T17:06:59.945Z,27.70
2022-07-30T17:11:01.091Z,28.10
2022-07-30T17:15:02.459Z,27.80
2022-07-30T17:19:09.209Z,28.30
2022-07-30T17:23:07.197Z,28.60
2022-07-30T17:27:08.243Z,27.60
2022-07-30T17:31:09.485Z,27.80
2022-07-30T17:35:13.847Z,26.60
2022-07-30T17:40:03.989Z,26.90
2022-07-30T17:43:16.251Z,27.50
2022-07-30T17:47:17.506Z,27.50
2022-07-30T17:51:19.225Z,26.70
2022-07-30T17:55:20.364Z,27.30
2022-07-30T17:59:21.517Z,26.40
2022-07-30T18:03:22.642Z,26.20
2022-07-30T18:07:23.670Z,25.50
2022-07-30T18:11:24.793Z,25.60
2022-07-30T18:15:27.157Z,26.10
2022-07-30T18:19:28.214Z,26.20
2022-07-30T18:23:34.630Z,26.20
2022-07-30T18:27:32.474Z,26.30
2022-07-30T18:31:34.902Z,25.40
2022-07-30T18:35:36.758Z,26.00
2022-07-30T18:39:37.900Z,25.90
2022-07-30T18:43:47.864Z,26.20
2022-07-30T18:47:43.326Z,26.10
2022-07-30T18:51:44.350Z,26.50
2022-07-30T18:55:45.565Z,26.20
2022-07-30T18:59:46.556Z,26.00
2022-07-30T19:03:47.697Z,25.40
2022-07-30T19:07:57.870Z,25.50
2022-07-30T19:11:51.648Z,25.10
2022-07-30T19:15:53.401Z,24.20
2022-07-30T19:19:54.724Z,23.60
2022-07-30T19:23:55.834Z,24.00
2022-07-30T19:27:57.019Z,25.00
2022-07-30T19:31:58.448Z,24.90
2022-07-30T19:35:59.792Z,25.30
2022-07-30T19:40:05.915Z,25.10
2022-07-30T19:44:04.984Z,25.00
2022-07-30T19:48:09.410Z,24.70
2022-07-30T19:52:23.671Z,24.60
2022-07-30T19:56:14.614Z,24.10
2022-07-30T20:00:15.639Z,23.90
2022-07-30T20:04:19.294Z,24.70
2022-07-30T20:08:24.742Z,25.00
2022-07-30T20:12:24.557Z,25.00
2022-07-30T20:16:27.548Z,24.70
2022-07-30T20:20:28.758Z,24.70
2022-07-30T20:24:29.793Z,24.50
2022-07-30T20:28:31.315Z,24.30
2022-07-30T20:32:32.272Z,24.60
2022-07-30T20:36:34.387Z,24.50
2022-07-30T20:40:35.517Z,24.40
2022-07-30T20:44:40.195Z,24.30
2022-07-30T20:48:43.111Z,24.30
2022-07-30T20:52:46.652Z,24.20
2022-07-30T20:56:49.209Z,24.10
2022-07-30T21:00:50.960Z,24.00
2022-07-30T21:04:53.974Z,24.00
2022-07-30T21:08:55.598Z,23.80
2022-07-30T21:13:02.991Z,23.80
2022-07-30T21:17:01.323Z,23.70
2022-07-30T21:21:04.857Z,24.00
2022-07-30T21:25:08.289Z,24.00
2022-07-30T21:29:09.971Z,23.80
2022-07-30T21:33:11.977Z,22.80
2022-07-30T21:37:15.477Z,23.10
2022-07-30T21:41:17.943Z,23.10
2022-07-30T21:45:19.511Z,23.20
2022-07-30T21:49:21.525Z,23.20
2022-07-30T21:53:29.878Z,21.80
2022-07-30T21:57:30.152Z,22.50
2022-07-30T22:01:29.595Z,22.80
2022-07-30T22:05:38.306Z,22.80
2022-07-30T22:09:35.315Z,22.40
2022-07-30T22:13:51.391Z,22.60
2022-07-30T22:17:58.724Z,22.40
2022-07-30T22:21:42.901Z,22.40
2022-07-30T22:25:47.532Z,22.30
2022-07-30T22:29:50.483Z,22.20
2022-07-30T22:33:53.273Z,22.10
2022-07-30T22:37:54.555Z,21.90
2022-07-30T22:41:55.784Z,21.90
2022-07-30T22:45:56.863Z,21.50
2022-07-30T22:49:57.891Z,21.40
2022-07-30T22:54:12.435Z,21.50
2022-07-30T22:58:02.764Z,22.00
2022-07-30T23:02:04.292Z,21.90
2022-07-30T23:06:05.592Z,22.00
2022-07-30T23:12:31.000Z,22.30
2022-07-30T23:14:13.056Z,22.70
2022-07-30T23:18:15.545Z,22.60
2022-07-30T23:22:16.629Z,21.80
2022-07-30T23:26:17.742Z,21.10
2022-07-30T23:30:18.724Z,21.60
2022-07-30T23:34:19.757Z,22.00
2022-07-30T23:38:20.779Z,22.30
2022-07-30T23:42:21.680Z,22.30
2022-07-30T23:46:22.654Z,22.40
2022-07-30T23:50:24.177Z,22.40
2022-07-30T23:54:25.309Z,22.40
2022-07-30T23:58:26.307Z,22.70
